Terminal Aerodrome Forecast
Issued by NWS

Current Version | Previous Version | Text Only | Print | Product List | Glossary Off
Versions: 1 2 3 4 5 6 7 8 9 10 11 12 13 14

000
FTUS41 KRNK 261140
TAFLWB
TAF
KLWB 261140Z 2612/2712 00000KT P6SM OVC004
      TEMPO 2612/2614 5SM BR
     FM261400 00000KT P6SM BKN015
     FM261600 VRB03KT P6SM SKC
     FM270900 00000KT 5SM BR SCT002=

USA.gov is the U.S. government's official web portal to all federal, state and local government web resources and services.